Time;durP1;ratioP1;P1;durP2;ratioP2;P2;SDS_P1;SDS_P2;PMS_P1;PMS_P2;Temp;Humidity;BMP_temperature;BMP_pressure;BME280_temperature;BME280_humidity;BME280_pressure;Samples;Min_cycle;Max_cycle;Signal;HPM_P1;HPM_P2
2021/04/18 00:00:17;;;;;;;21.27;18.97;;;;;;;6.36;78.50;100568.35;1634653;86;21224;-84
2021/04/18 00:02:48;;;;;;;23.60;21.13;;;;;;;6.37;78.87;100566.55;1628359;86;21753;-84
2021/04/18 00:05:22;;;;;;;24.13;21.57;;;;;;;6.37;78.95;100566.55;1633164;86;21237;-84
2021/04/18 00:07:51;;;;;;;21.57;18.40;;;;;;;6.37;78.99;100565.23;1632098;86;21195;-84
2021/04/18 00:10:21;;;;;;;22.47;18.47;;;;;;;6.42;78.79;100561.61;1635751;86;21303;-84
2021/04/18 00:12:50;;;;;;;22.97;20.47;;;;;;;6.57;78.52;100561.86;1655108;84;21069;-84
2021/04/18 00:15:17;;;;;;;23.43;20.43;;;;;;;6.60;78.39;100554.94;1674455;84;21160;-84
2021/04/18 00:17:44;;;;;;;27.10;22.73;;;;;;;6.55;78.59;100558.55;1673767;84;21200;-84
2021/04/18 00:20:14;;;;;;;25.63;22.40;;;;;;;6.51;78.60;100555.87;1673669;84;21651;-84
2021/04/18 00:22:43;;;;;;;22.80;19.93;;;;;;;6.45;78.68;100556.01;1674007;80;21199;-84
2021/04/18 00:25:16;;;;;;;26.30;20.23;;;;;;;6.50;78.65;100559.03;1659037;85;21169;-84
2021/04/18 00:27:46;;;;;;;25.47;22.07;;;;;;;6.61;78.43;100560.56;1610922;87;21188;-84
2021/04/18 00:30:19;;;;;;;28.60;22.47;;;;;;;6.63;78.29;100565.23;1655409;85;21206;-83
2021/04/18 00:32:47;;;;;;;25.63;22.67;;;;;;;6.56;78.43;100561.04;1666291;85;21165;-83
2021/04/18 00:35:16;;;;;;;24.80;21.93;;;;;;;6.54;78.56;100557.72;1666189;81;21095;-84
2021/04/18 00:37:43;;;;;;;23.53;20.03;;;;;;;6.51;78.55;100563.32;1632130;86;21296;-84
2021/04/18 00:40:16;;;;;;;21.33;18.93;;;;;;;6.53;78.45;100559.20;1631691;86;21679;-78
2021/04/18 00:42:44;;;;;;;19.87;17.53;;;;;;;6.61;78.09;100560.56;1628862;86;21239;-78
2021/04/18 00:45:13;;;;;;;20.93;18.73;;;;;;;6.43;78.08;100527.53;1617275;85;21120;-71
2021/04/18 00:47:47;;;;;;;20.93;18.73;;;;;;;6.50;78.29;100551.08;1599992;88;21425;-78
2021/04/18 00:50:20;;;;;;;19.87;17.47;;;;;;;6.51;78.78;100558.02;1603381;88;21802;-77
2021/04/18 00:52:50;;;;;;;21.33;18.43;;;;;;;6.52;78.94;100557.55;1611442;88;21224;-77
2021/04/18 00:55:19;;;;;;;17.07;15.27;;;;;;;6.57;78.95;100559.22;1590858;88;21368;-77
2021/04/18 00:57:47;;;;;;;18.77;15.53;;;;;;;6.69;78.61;100552.67;1622422;87;21233;-78
2021/04/18 01:02:42;;;;;;;20.57;18.00;;;;;;;6.71;78.73;100541.42;1751055;79;23241;-78
2021/04/18 01:05:10;;;;;;;18.37;16.13;;;;;;;6.62;79.05;100545.02;1705196;82;21783;-78
2021/04/18 01:07:40;;;;;;;20.33;15.30;;;;;;;6.62;79.08;100545.02;1707946;82;21249;-78
2021/04/18 01:10:11;;;;;;;18.70;15.50;;;;;;;6.62;78.82;100529.95;1693679;83;21224;-78
2021/04/18 01:12:38;;;;;;;18.37;16.43;;;;;;;6.77;78.63;100526.21;1690969;83;21036;-78
2021/04/18 01:15:09;;;;;;;17.13;15.13;;;;;;;6.82;78.52;100524.42;1643804;85;21858;-78
2021/04/18 01:17:37;;;;;;;18.03;16.13;;;;;;;6.78;78.52;100524.38;1685754;83;21125;-78
2021/04/18 01:20:13;;;;;;;20.20;16.53;;;;;;;6.74;78.65;100521.72;1689593;83;21281;-79
2021/04/18 01:22:41;;;;;;;18.00;16.10;;;;;;;6.70;78.60;100519.06;1684005;83;21530;-78
2021/04/18 01:25:28;;;;;;;15.35;12.98;;;;;;;6.68;78.41;100525.83;1699563;82;21654;-77
2021/04/18 01:28:13;;;;;;;15.98;14.38;;;;;;;6.80;78.35;100519.28;1804001;78;23066;-74
2021/04/18 01:30:42;;;;;;;16.30;14.63;;;;;;;6.74;78.35;100523.05;1757442;79;21206;-78
2021/04/18 01:33:09;;;;;;;16.83;15.07;;;;;;;6.68;78.74;100518.39;1744136;80;21759;-80
2021/04/18 01:35:36;;;;;;;17.37;15.63;;;;;;;6.65;78.83;100518.22;1697166;82;21201;-78
2021/04/18 01:38:08;;;;;;;15.40;13.77;;;;;;;6.60;78.95;100515.21;1684338;83;21190;-74
2021/04/18 01:40:37;;;;;;;15.13;13.63;;;;;;;6.64;78.87;100511.25;1692442;82;21250;-78
2021/04/18 01:43:05;;;;;;;14.27;12.77;;;;;;;6.75;78.47;100507.00;1668667;85;21202;-78
2021/04/18 01:45:32;;;;;;;16.00;14.30;;;;;;;6.76;78.30;100506.02;1618653;87;21103;-79
2021/04/18 01:48:00;;;;;;;17.27;14.90;;;;;;;6.66;78.34;100497.86;1654886;85;22197;-78
2021/04/18 01:50:27;;;;;;;16.87;15.07;;;;;;;6.57;78.58;100493.86;1657545;85;21226;-79
2021/04/18 01:52:54;;;;;;;14.63;13.13;;;;;;;6.49;78.62;100491.14;1653918;85;21179;-78
2021/04/18 01:55:21;;;;;;;14.10;12.70;;;;;;;6.52;78.65;100492.67;1642785;84;21202;-78
2021/04/18 01:57:50;;;;;;;13.73;12.33;;;;;;;6.60;78.39;100494.02;1602752;87;21210;-77
2021/04/18 02:00:32;;;;;;;13.77;12.37;;;;;;;6.56;78.31;100487.39;1624260;85;21560;-77
2021/04/18 02:03:00;;;;;;;16.63;13.23;;;;;;;6.50;78.47;100490.17;1635880;85;21318;-78
2021/04/18 02:05:35;;;;;;;15.53;13.77;;;;;;;6.42;78.77;100502.88;1646811;85;21674;-78
2021/04/18 02:08:06;;;;;;;14.60;12.60;;;;;;;6.38;78.99;100496.72;1634625;85;21214;-77
2021/04/18 02:10:34;;;;;;;12.10;10.90;;;;;;;6.43;78.92;100497.91;1645060;85;21176;-78
2021/04/18 02:13:03;;;;;;;12.57;11.27;;;;;;;6.54;78.67;100490.19;1612280;85;21600;-78
2021/04/18 02:15:37;;;;;;;12.60;11.17;;;;;;;6.57;78.56;100491.20;1624979;87;21889;-78
2021/04/18 02:18:06;;;;;;;13.07;11.73;;;;;;;6.51;78.73;100485.20;1625879;87;21348;-78
2021/04/18 02:20:34;;;;;;;14.43;12.47;;;;;;;6.49;78.98;100485.03;1623044;87;21229;-78
2021/04/18 02:23:02;;;;;;;12.47;11.27;;;;;;;6.45;78.87;100479.72;1644165;85;21119;-77
2021/04/18 02:25:30;;;;;;;11.67;10.47;;;;;;;6.47;78.69;100479.06;1678953;84;21179;-77
2021/04/18 02:27:57;;;;;;;11.83;10.73;;;;;;;6.54;78.36;100474.80;1663056;84;21201;-78
2021/04/18 02:30:26;;;;;;;12.20;11.10;;;;;;;6.53;78.39;100469.98;1648416;85;21194;-78
2021/04/18 02:32:54;;;;;;;11.63;9.43;;;;;;;6.47;78.72;100471.13;1658641;84;21179;-77
2021/04/18 02:35:21;;;;;;;11.13;10.00;;;;;;;6.46;79.01;100473.42;1640474;84;21135;-77
2021/04/18 02:37:49;;;;;;;11.37;10.27;;;;;;;6.43;78.95;100482.02;1628726;86;21223;-78
2021/04/18 02:40:18;;;;;;;10.90;9.80;;;;;;;6.47;78.87;100472.45;1626960;86;21345;-76
2021/04/18 02:42:46;;;;;;;9.53;8.63;;;;;;;6.57;78.61;100462.08;1644684;86;21346;-78
2021/04/18 02:45:14;;;;;;;10.47;9.40;;;;;;;6.60;78.65;100460.91;1637455;85;21111;-77
2021/04/18 02:47:46;;;;;;;10.37;9.27;;;;;;;6.57;78.89;100456.78;1639367;85;21178;-77
2021/04/18 02:50:15;;;;;;;10.93;9.93;;;;;;;6.58;79.19;100450.98;1648458;85;21628;-77
2021/04/18 02:52:43;;;;;;;10.27;8.20;;;;;;;6.58;79.11;100444.36;1656229;85;21708;-77
2021/04/18 02:55:12;;;;;;;10.67;8.97;;;;;;;6.65;78.90;100448.50;1650867;85;21297;-78
2021/04/18 02:57:41;;;;;;;9.17;8.37;;;;;;;6.79;78.47;100443.93;1622622;88;21649;-76
2021/04/18 03:00:11;;;;;;;11.40;9.93;;;;;;;6.83;78.29;100447.41;1628978;87;21166;-77
2021/04/18 03:02:39;;;;;;;10.23;9.23;;;;;;;6.80;78.31;100453.05;1592635;88;21255;-77
2021/04/18 03:05:09;;;;;;;10.70;9.60;;;;;;;6.76;78.35;100450.86;1620499;88;21230;-76
2021/04/18 03:07:39;;;;;;;10.50;9.60;;;;;;;6.72;78.21;100436.28;1593103;88;21684;-77
2021/04/18 03:10:09;;;;;;;9.63;8.40;;;;;;;6.74;78.17;100436.48;1619763;88;21247;-77
2021/04/18 03:12:37;;;;;;;9.60;8.80;;;;;;;6.81;77.92;100438.79;1615673;86;21475;-78
2021/04/18 03:15:06;;;;;;;10.83;9.73;;;;;;;6.83;77.85;100434.16;1608877;88;21222;-78
2021/04/18 03:17:35;;;;;;;11.63;10.43;;;;;;;6.78;78.11;100433.83;1606168;88;21669;-77
2021/04/18 03:20:06;;;;;;;12.33;11.13;;;;;;;6.75;78.24;100440.77;1653605;86;21189;-78
2021/04/18 03:22:34;;;;;;;10.50;9.57;;;;;;;6.76;78.34;100443.77;1638199;86;21120;-77
2021/04/18 03:25:04;;;;;;;9.53;8.63;;;;;;;6.89;78.37;100442.45;1637121;86;21196;-76
2021/04/18 03:27:32;;;;;;;11.07;9.97;;;;;;;7.09;77.95;100445.16;1642994;86;21634;-78
2021/04/18 03:30:01;;;;;;;9.20;8.30;;;;;;;7.12;77.22;100439.55;1625160;87;21668;-78
2021/04/18 03:32:28;;;;;;;11.77;9.10;;;;;;;7.07;77.25;100444.49;1639979;86;21398;-78
2021/04/18 03:34:57;;;;;;;9.50;8.70;;;;;;;6.99;77.17;100452.44;1644356;87;21546;-79
2021/04/18 03:37:25;;;;;;;9.37;8.47;;;;;;;6.91;77.24;100453.25;1643051;86;21232;-80
2021/04/18 03:39:52;;;;;;;7.93;7.23;;;;;;;6.92;77.08;100444.30;1633912;86;21227;-79
2021/04/18 03:42:20;;;;;;;8.60;7.70;;;;;;;6.98;76.80;100437.02;1642963;86;21192;-80
2021/04/18 03:44:50;;;;;;;10.30;7.77;;;;;;;6.96;76.71;100436.84;1631912;86;21638;-79
2021/04/18 03:47:17;;;;;;;10.20;8.93;;;;;;;6.85;76.92;100421.25;1619363;88;21180;-78
2021/04/18 03:49:52;;;;;;;9.33;8.43;;;;;;;6.82;77.05;100428.54;1614346;88;21224;-77
2021/04/18 03:52:22;;;;;;;9.53;8.53;;;;;;;6.77;77.09;100433.98;1619098;88;21220;-79
2021/04/18 03:54:49;;;;;;;9.27;8.37;;;;;;;6.79;77.17;100435.48;1615558;88;21370;-78
2021/04/18 03:57:17;;;;;;;10.03;9.10;;;;;;;6.92;76.91;100435.52;1607175;88;21129;-79
2021/04/18 03:59:44;;;;;;;9.70;8.07;;;;;;;7.01;77.10;100438.53;1618389;88;21286;-77
2021/04/18 04:02:13;;;;;;;11.67;8.20;;;;;;;7.14;77.15;100435.38;1633972;86;21129;-77
2021/04/18 04:04:42;;;;;;;13.13;9.77;;;;;;;7.21;76.56;100431.94;1631156;87;21368;-76
2021/04/18 04:07:11;;;;;;;14.90;13.03;;;;;;;7.20;76.29;100427.61;1604953;88;21272;-76
2021/04/18 04:09:40;;;;;;;17.67;13.73;;;;;;;7.18;76.16;100436.23;1613519;87;21208;-78
2021/04/18 04:12:10;;;;;;;16.47;13.07;;;;;;;7.20;75.74;100432.09;1612056;86;21142;-77
2021/04/18 04:14:40;;;;;;;13.43;11.47;;;;;;;7.24;75.28;100436.07;1613124;88;21857;-77
2021/04/18 04:17:07;;;;;;;11.60;10.40;;;;;;;7.17;75.36;100441.69;1588546;89;21272;-77
2021/04/18 04:19:36;;;;;;;9.77;8.77;;;;;;;7.06;75.63;100444.14;1619062;88;21294;-75
2021/04/18 04:22:14;;;;;;;8.83;7.93;;;;;;;6.98;75.92;100439.66;1605821;86;21207;-87
2021/04/18 04:24:52;;;;;;;8.43;7.67;;;;;;;6.90;76.12;100438.83;1643951;87;21257;-76
2021/04/18 04:27:21;;;;;;;13.20;11.40;;;;;;;6.91;76.28;100438.67;1645331;86;21359;-77
2021/04/18 04:29:50;;;;;;;20.07;17.10;;;;;;;6.97;75.99;100434.55;1633304;87;21246;-77
2021/04/18 04:32:18;;;;;;;28.70;20.60;;;;;;;6.91;76.01;100433.85;1644659;87;21315;-77
2021/04/18 04:34:45;;;;;;;18.20;15.40;;;;;;;6.77;76.30;100429.52;1631670;85;21073;-77
2021/04/18 04:37:13;;;;;;;12.60;11.13;;;;;;;6.69;76.82;100427.35;1642776;87;21193;-76
2021/04/18 04:39:40;;;;;;;10.33;9.00;;;;;;;6.62;77.08;100421.85;1641891;87;21196;-77
2021/04/18 04:42:07;;;;;;;9.73;8.83;;;;;;;6.66;76.90;100423.69;1637976;87;21176;-76
2021/04/18 04:44:35;;;;;;;8.80;7.60;;;;;;;6.71;76.73;100426.70;1634048;84;21050;-77
2021/04/18 04:47:02;;;;;;;9.53;8.60;;;;;;;6.76;76.86;100419.07;1639395;87;22363;-77
2021/04/18 04:49:29;;;;;;;9.83;8.83;;;;;;;6.74;76.69;100419.25;1643499;87;21193;-76
2021/04/18 04:51:56;;;;;;;9.33;8.43;;;;;;;6.66;76.72;100413.91;1628648;87;21381;-76
2021/04/18 04:54:24;;;;;;;8.30;6.80;;;;;;;6.59;76.99;100414.22;1642930;87;21192;-77
2021/04/18 04:56:53;;;;;;;6.57;5.93;;;;;;;6.63;77.06;100416.91;1636936;85;21109;-77
2021/04/18 04:59:21;;;;;;;8.60;7.67;;;;;;;6.73;76.93;100411.47;1645923;86;21224;-76
2021/04/18 05:01:48;;;;;;;8.60;7.70;;;;;;;6.78;77.01;100411.78;1635671;85;21254;-77
2021/04/18 05:04:15;;;;;;;8.17;7.47;;;;;;;6.78;77.27;100408.66;1637471;87;21224;-76
2021/04/18 05:06:42;;;;;;;7.80;7.10;;;;;;;6.83;77.30;100414.79;1649271;87;21680;-77
2021/04/18 05:09:11;;;;;;;7.40;6.80;;;;;;;6.85;77.28;100411.98;1646966;86;21149;-76
2021/04/18 05:11:38;;;;;;;8.87;8.07;;;;;;;6.94;77.13;100403.06;1640236;84;22509;-76
2021/04/18 05:14:05;;;;;;;7.73;6.93;;;;;;;7.07;76.89;100400.76;1632890;87;21208;-76
2021/04/18 05:16:32;;;;;;;8.50;7.70;;;;;;;7.16;76.94;100397.13;1643885;87;21212;-76
2021/04/18 05:18:59;;;;;;;8.57;7.77;;;;;;;7.19;76.99;100400.75;1646289;87;21647;-77
2021/04/18 05:21:26;;;;;;;8.20;7.50;;;;;;;7.24;76.97;100399.45;1632985;87;21678;-77
2021/04/18 05:23:54;;;;;;;9.47;8.57;;;;;;;7.30;76.83;100397.47;1635466;85;21587;-77
2021/04/18 05:26:21;;;;;;;10.83;9.73;;;;;;;7.44;76.28;100403.44;1638670;87;21216;-78
2021/04/18 05:28:48;;;;;;;10.13;9.13;;;;;;;7.58;75.36;100397.45;1655671;86;21656;-77
2021/04/18 05:31:17;;;;;;;10.47;9.30;;;;;;;7.60;75.41;100390.66;1638607;87;21207;-77
2021/04/18 05:33:48;;;;;;;10.87;9.03;;;;;;;7.58;75.35;100396.63;1644807;85;21085;-82
2021/04/18 05:36:17;;;;;;;9.87;8.87;;;;;;;7.50;75.59;100380.22;1635268;87;21213;-76
2021/04/18 05:38:44;;;;;;;9.00;7.33;;;;;;;7.56;75.75;100386.69;1649421;87;21198;-77
2021/04/18 05:41:11;;;;;;;8.50;7.57;;;;;;;7.62;75.26;100387.84;1639337;86;21167;-76
2021/04/18 05:43:38;;;;;;;7.93;7.23;;;;;;;7.72;75.26;100385.34;1637927;86;21342;-77
2021/04/18 05:46:08;;;;;;;9.67;8.87;;;;;;;7.77;75.53;100390.95;1636982;84;21775;-77
2021/04/18 05:48:35;;;;;;;8.70;7.90;;;;;;;7.78;75.26;100383.34;1652243;87;21245;-78
2021/04/18 05:51:03;;;;;;;7.93;7.23;;;;;;;7.82;75.42;100388.28;1635176;87;21177;-77
2021/04/18 05:53:32;;;;;;;8.90;8.10;;;;;;;7.84;75.51;100386.31;1634623;87;21212;-73
2021/04/18 05:56:00;;;;;;;8.23;7.43;;;;;;;7.92;75.08;100388.44;1651279;85;21117;-73
2021/04/18 05:58:28;;;;;;;9.03;8.23;;;;;;;8.07;74.59;100386.41;1642263;87;21236;-73
2021/04/18 06:00:56;;;;;;;8.67;7.87;;;;;;;8.08;74.36;100382.75;1644886;85;21271;-76
2021/04/18 06:03:23;;;;;;;9.93;8.97;;;;;;;8.08;74.44;100388.91;1646697;86;21660;-79
2021/04/18 06:05:50;;;;;;;10.60;9.63;;;;;;;8.03;74.23;100383.27;1646652;87;21648;-75
2021/04/18 06:08:17;;;;;;;9.80;9.00;;;;;;;7.98;74.44;100374.47;1641432;87;21241;-76
2021/04/18 06:10:46;;;;;;;9.70;8.77;;;;;;;8.03;74.55;100368.67;1647919;87;21924;-74
2021/04/18 06:13:13;;;;;;;8.43;7.70;;;;;;;8.16;74.25;100363.64;1641467;84;21522;-76
2021/04/18 06:15:41;;;;;;;9.87;8.97;;;;;;;8.24;74.44;100364.62;1650223;87;21380;-75
2021/04/18 06:18:08;;;;;;;9.17;8.40;;;;;;;8.24;74.32;100361.45;1641826;87;21230;-75
2021/04/18 06:20:35;;;;;;;8.50;7.67;;;;;;;8.27;74.37;100358.47;1648578;87;21220;-75
2021/04/18 06:23:02;;;;;;;9.93;8.93;;;;;;;8.31;74.30;100361.61;1629999;87;21575;-76
2021/04/18 06:25:30;;;;;;;11.10;9.33;;;;;;;8.28;74.23;100357.45;1637238;87;21201;-75
2021/04/18 06:27:57;;;;;;;9.50;8.50;;;;;;;8.35;74.11;100351.78;1642117;87;21270;-77
2021/04/18 06:30:26;;;;;;;8.97;8.17;;;;;;;8.46;73.92;100354.59;1647565;86;21354;-73
2021/04/18 06:32:53;;;;;;;9.20;8.37;;;;;;;8.51;73.44;100352.24;1639004;87;21387;-76
2021/04/18 06:35:20;;;;;;;10.17;9.10;;;;;;;8.46;73.38;100351.11;1636858;85;21303;-74
2021/04/18 06:37:47;;;;;;;9.83;8.83;;;;;;;8.36;73.11;100348.61;1644210;87;21297;-75
2021/04/18 06:40:14;;;;;;;9.70;8.70;;;;;;;8.24;73.44;100344.19;1642530;87;21850;-75
2021/04/18 06:42:43;;;;;;;9.83;8.90;;;;;;;8.19;73.69;100350.52;1636850;87;21231;-72
2021/04/18 06:45:11;;;;;;;9.63;8.63;;;;;;;8.26;73.87;100348.02;1639817;87;21276;-73
2021/04/18 06:47:39;;;;;;;8.97;8.13;;;;;;;8.30;73.75;100348.80;1644959;87;21193;-76
2021/04/18 06:50:09;;;;;;;8.93;8.13;;;;;;;8.30;73.85;100354.11;1648158;87;21806;-76
2021/04/18 06:52:37;;;;;;;10.27;9.27;;;;;;;8.29;73.85;100351.16;1643843;87;21166;-78
2021/04/18 06:55:07;;;;;;;10.43;9.37;;;;;;;8.31;73.93;100354.97;1635866;86;21370;-78
2021/04/18 06:57:35;;;;;;;9.30;8.03;;;;;;;8.37;73.58;100358.25;1597254;88;21280;-79
2021/04/18 07:00:06;;;;;;;9.17;8.37;;;;;;;8.51;73.34;100359.36;1585153;89;21399;-78
2021/04/18 07:02:35;;;;;;;10.13;9.23;;;;;;;8.56;73.01;100358.34;1586970;88;21236;-78
2021/04/18 07:05:10;;;;;;;11.80;10.63;;;;;;;8.52;72.98;100357.87;1586460;88;21197;-78
2021/04/18 07:07:43;;;;;;;10.90;9.90;;;;;;;8.48;73.03;100354.42;1585231;88;21371;-81
2021/04/18 07:10:28;;;;;;;11.20;10.07;;;;;;;8.41;73.48;100355.57;1592697;88;21229;-78
2021/04/18 07:13:09;;;;;;;10.47;8.87;;;;;;;8.41;73.49;100354.75;1603405;87;21106;-77
2021/04/18 07:15:42;;;;;;;9.67;8.83;;;;;;;8.45;73.48;100358.73;1623772;86;21994;-76
2021/04/18 07:18:35;;;;;;;10.67;9.67;;;;;;;8.43;73.50;100356.25;1630814;86;21715;-78
2021/04/18 07:21:03;;;;;;;11.57;10.13;;;;;;;8.35;74.02;100353.11;1619960;88;21356;-82
2021/04/18 07:26:28;;;;;;;11.22;10.28;;;;;;;8.31;74.48;100347.00;1868882;74;39708;-78
2021/04/18 07:29:15;;;;;;;9.43;8.50;;;;;;;8.49;74.09;100356.05;1835338;77;21319;-78
2021/04/18 07:31:45;;;;;;;9.73;8.80;;;;;;;8.67;73.76;100347.32;1837300;77;21209;-78
2021/04/18 07:34:22;;;;;;;8.57;7.77;;;;;;;8.61;73.98;100358.66;1817010;77;21154;-76
2021/04/18 07:37:09;;;;;;;9.10;8.30;;;;;;;8.56;74.20;100360.50;1780110;80;21202;-78
2021/04/18 07:39:58;;;;;;;8.90;8.10;;;;;;;8.59;74.21;100358.01;1791731;79;21174;-77
2021/04/18 07:42:36;;;;;;;8.53;7.73;;;;;;;8.68;74.09;100351.65;1789695;78;21208;-77
2021/04/18 07:45:19;;;;;;;9.07;8.17;;;;;;;8.68;74.24;100354.30;1764774;79;21300;-78
2021/04/18 07:47:47;;;;;;;9.30;8.43;;;;;;;8.63;74.38;100357.16;1759378;81;21645;-77
2021/04/18 07:50:20;;;;;;;11.27;9.33;;;;;;;8.58;74.64;100353.69;1733267;80;21312;-74
2021/04/18 07:52:49;;;;;;;8.83;7.93;;;;;;;8.58;74.73;100346.53;1740832;80;21178;-85
2021/04/18 07:55:19;;;;;;;8.87;8.03;;;;;;;8.65;74.71;100355.16;1762395;78;21202;-84
2021/04/18 07:57:46;;;;;;;9.97;8.97;;;;;;;8.76;74.41;100356.90;1793886;79;21188;-85
2021/04/18 08:00:17;;;;;;;10.13;9.17;;;;;;;8.77;74.12;100357.21;1783701;78;21217;-83
2021/04/18 08:03:07;;;;;;;10.70;9.70;;;;;;;8.78;74.62;100354.08;1801558;77;22672;-86
2021/04/18 08:05:37;;;;;;;11.87;9.83;;;;;;;8.71;74.61;100365.08;1759947;80;21250;-85
2021/04/18 08:08:13;;;;;;;9.83;8.97;;;;;;;8.70;74.66;100366.06;1738412;81;21206;-86
2021/04/18 08:10:47;;;;;;;10.97;9.90;;;;;;;8.76;74.60;100363.55;1720748;81;21347;-84
2021/04/18 08:13:26;;;;;;;9.80;8.97;;;;;;;8.90;74.17;100359.29;1711772;82;21189;-86
2021/04/18 08:18:45;;;;;;;12.33;11.13;;;;;;;8.92;74.25;100353.80;1822046;77;24918;-86
2021/04/18 08:21:37;;;;;;;10.47;9.47;;;;;;;8.86;74.09;100357.99;1799064;78;21611;-88
2021/04/18 08:24:18;;;;;;;9.77;8.87;;;;;;;8.79;74.18;100358.37;1725136;78;21081;-89
2021/04/18 08:26:59;;;;;;;9.30;8.57;;;;;;;8.85;74.01;100354.18;1643538;85;22236;-88
2021/04/18 08:30:03;;;;;;;12.07;8.70;;;;;;;9.03;73.71;100354.72;1811965;78;23105;-85
2021/04/18 08:32:47;;;;;;;10.13;9.23;;;;;;;8.99;73.64;100356.08;1708751;82;21247;-93
2021/04/18 08:35:19;;;;;;;10.37;9.23;;;;;;;8.95;73.70;100358.27;1649043;84;21219;-87
2021/04/18 08:38:15;;;;;;;11.13;10.13;;;;;;;8.92;73.59;100352.47;1676230;84;21244;-86
2021/04/18 08:40:44;;;;;;;11.57;9.53;;;;;;;8.89;73.68;100354.99;1669161;83;21389;-86
2021/04/18 08:43:20;;;;;;;10.87;9.77;;;;;;;8.99;73.56;100353.42;1657806;83;21255;-86
2021/04/18 08:45:55;;;;;;;10.67;9.57;;;;;;;8.33;73.58;100242.23;1690874;83;21714;-88
2021/04/18 08:48:22;;;;;;;14.47;12.67;;;;;;;9.01;73.76;100349.27;1679259;84;21155;-88
2021/04/18 08:50:58;;;;;;;17.73;14.57;;;;;;;8.96;73.54;100349.78;1676056;84;21216;-84
2021/04/18 08:53:27;;;;;;;19.70;15.90;;;;;;;8.92;73.38;100345.31;1678149;84;21369;-86
2021/04/18 08:56:02;;;;;;;17.90;13.67;;;;;;;8.88;73.45;100344.02;1700265;83;21183;-85
2021/04/18 08:58:36;;;;;;;10.53;8.93;;;;;;;8.90;73.53;100342.02;1691917;82;21148;-86
2021/04/18 09:01:11;;;;;;;11.40;8.53;;;;;;;8.98;73.22;100340.30;1702579;84;21326;-87
2021/04/18 09:03:58;;;;;;;9.10;8.20;;;;;;;8.99;73.21;100341.46;1702640;83;21237;-85
2021/04/18 09:06:34;;;;;;;13.20;11.80;;;;;;;8.99;73.40;100348.11;1689422;82;21622;-86
2021/04/18 09:09:07;;;;;;;12.47;11.22;;;;;;;8.97;73.40;100343.47;1696810;82;21215;-85
2021/04/18 09:11:42;;;;;;;19.50;14.77;;;;;;;8.96;73.61;100346.61;1695892;83;21135;-87
2021/04/18 09:14:09;;;;;;;18.53;14.47;;;;;;;9.05;73.60;100349.23;1693762;84;21350;-84
2021/04/18 09:16:38;;;;;;;13.63;12.07;;;;;;;9.18;73.21;100346.80;1713875;82;21770;-87
2021/04/18 09:19:31;;;;;;;9.67;8.67;;;;;;;9.24;73.13;100339.93;1679614;82;21187;-85
2021/04/18 09:22:19;;;;;;;9.70;8.80;;;;;;;9.21;72.87;100342.94;1684413;84;21871;-85
2021/04/18 09:24:57;;;;;;;8.53;7.73;;;;;;;9.25;73.10;100341.09;1797742;79;24326;-83
2021/04/18 09:27:36;;;;;;;7.53;6.87;;;;;;;9.22;73.01;100338.77;1787262;79;21165;-84
2021/04/18 09:30:21;;;;;;;8.80;8.00;;;;;;;9.30;73.12;100341.86;1774991;79;21164;-83
2021/04/18 09:32:54;;;;;;;9.13;8.23;;;;;;;9.44;72.63;100347.73;1766321;80;21559;-87
2021/04/18 09:35:27;;;;;;;7.95;7.35;;;;;;;9.50;72.84;100347.00;1712355;80;21753;-87
2021/04/18 09:38:02;;;;;;;8.40;7.70;;;;;;;9.49;72.70;100352.02;1709532;83;21156;-87
2021/04/18 09:40:33;;;;;;;8.77;7.80;;;;;;;9.46;72.57;100355.02;1715937;82;21203;-87
2021/04/18 09:43:06;;;;;;;7.73;7.03;;;;;;;9.44;72.83;100357.56;1705515;82;21337;-87
2021/04/18 09:45:32;;;;;;;10.30;9.40;;;;;;;9.49;72.83;100354.68;1667092;82;21270;-87
2021/04/18 09:48:17;;;;;;;11.50;10.43;;;;;;;9.64;72.58;100359.17;1682097;84;21480;-87
2021/04/18 09:50:59;;;;;;;9.73;8.73;;;;;;;9.62;72.25;100359.35;1685136;84;21159;-87
2021/04/18 09:53:29;;;;;;;8.60;7.90;;;;;;;9.54;72.43;100358.93;1678627;84;21306;-87
2021/04/18 09:56:05;;;;;;;10.67;9.57;;;;;;;9.53;72.69;100368.42;1674625;83;21089;-87
2021/04/18 09:58:34;;;;;;;10.23;9.27;;;;;;;9.51;72.76;100357.98;1668398;84;21179;-87
2021/04/18 10:01:04;;;;;;;13.07;9.83;;;;;;;9.55;72.69;100357.94;1673924;84;21098;-87
2021/04/18 10:03:41;;;;;;;10.63;8.57;;;;;;;9.69;72.57;100362.13;1657928;85;21237;-88
2021/04/18 10:06:12;;;;;;;9.90;9.07;;;;;;;9.75;72.64;100365.38;1692848;84;21190;-88
2021/04/18 10:08:41;;;;;;;9.33;8.60;;;;;;;9.71;72.67;100363.59;1690680;84;21634;-87
2021/04/18 10:11:14;;;;;;;9.97;8.47;;;;;;;9.70;72.58;100364.61;1675286;83;21638;-88
2021/04/18 10:13:51;;;;;;;8.87;8.07;;;;;;;9.70;72.41;100373.93;1636853;85;21742;-86
2021/04/18 10:16:38;;;;;;;9.20;8.40;;;;;;;9.70;72.23;100367.76;1674656;84;21329;-88
2021/04/18 10:19:18;;;;;;;8.30;7.60;;;;;;;9.77;72.27;100371.86;1630411;85;22216;-87
2021/04/18 10:22:08;;;;;;;9.67;8.63;;;;;;;9.90;71.82;100369.39;1673681;84;21206;-89
2021/04/18 10:24:44;;;;;;;10.53;9.53;;;;;;;9.92;71.72;100374.84;1629506;86;21243;-86
2021/04/18 10:27:14;;;;;;;18.82;16.90;;;;;;;9.89;71.68;100375.74;1652455;85;21645;-86
2021/04/18 10:29:44;;;;;;;11.37;10.37;;;;;;;9.88;71.78;100382.87;1657010;85;21211;-86
2021/04/18 10:32:15;;;;;;;10.13;9.23;;;;;;;9.89;71.75;100384.55;1653872;85;21222;-88
2021/04/18 10:34:44;;;;;;;10.10;9.17;;;;;;;9.94;71.87;100385.31;1630378;86;21155;-87
2021/04/18 10:37:10;;;;;;;10.40;9.40;;;;;;;10.02;71.76;100383.07;1640735;86;21204;-87
2021/04/18 10:39:38;;;;;;;9.07;8.17;;;;;;;10.04;71.92;100387.70;1632656;86;21216;-88
2021/04/18 10:42:06;;;;;;;9.70;8.70;;;;;;;9.99;72.50;100388.27;1641013;85;21223;-87
2021/04/18 10:44:33;;;;;;;9.47;8.63;;;;;;;9.97;72.78;100384.97;1647362;86;21056;-87
2021/04/18 10:47:05;;;;;;;10.07;8.37;;;;;;;9.92;73.33;100386.83;1635296;86;21459;-88
2021/04/18 10:49:33;;;;;;;9.60;8.77;;;;;;;9.97;73.20;100388.95;1632844;86;21272;-87
2021/04/18 10:52:01;;;;;;;9.30;8.43;;;;;;;10.06;72.72;100387.86;1622369;86;21186;-87
2021/04/18 10:54:27;;;;;;;8.53;7.77;;;;;;;10.12;72.57;100384.97;1647140;85;21245;-86
2021/04/18 10:56:55;;;;;;;9.17;8.47;;;;;;;10.11;72.50;100390.81;1666485;84;21099;-87
2021/04/18 10:59:22;;;;;;;9.73;8.93;;;;;;;10.14;72.47;100388.27;1642638;86;21282;-86
2021/04/18 11:01:52;;;;;;;12.47;7.37;;;;;;;10.21;72.50;100387.02;1645540;85;21090;-88
2021/04/18 11:04:19;;;;;;;8.93;8.13;;;;;;;10.32;71.78;100382.09;1625274;86;21454;-86
2021/04/18 11:06:48;;;;;;;7.97;7.37;;;;;;;10.48;71.44;100385.56;1653659;85;21185;-87
2021/04/18 11:09:16;;;;;;;9.30;7.27;;;;;;;10.57;71.35;100380.45;1647867;85;21189;-88
2021/04/18 11:11:43;;;;;;;7.97;7.37;;;;;;;10.64;71.22;100377.84;1646311;85;21090;-87
2021/04/18 11:14:12;;;;;;;7.40;6.80;;;;;;;10.70;71.21;100376.59;1635236;86;21321;-88
2021/04/18 11:16:41;;;;;;;7.63;7.13;;;;;;;10.79;70.62;100377.80;1620358;86;21883;-85
2021/04/18 11:19:08;;;;;;;6.40;5.90;;;;;;;10.86;70.24;100377.37;1632035;86;21662;-88
2021/04/18 11:21:37;;;;;;;6.67;6.17;;;;;;;11.00;69.96;100370.31;1627165;86;21190;-87
2021/04/18 11:24:06;;;;;;;6.03;5.53;;;;;;;11.14;69.30;100376.63;1653312;82;22126;-88
2021/04/18 11:26:33;;;;;;;7.07;6.47;;;;;;;11.19;69.41;100371.52;1668315;84;21177;-88
2021/04/18 11:29:00;;;;;;;6.13;5.73;;;;;;;11.23;69.10;100375.48;1671946;84;21196;-87
2021/04/18 11:31:30;;;;;;;6.55;6.00;;;;;;;11.25;69.06;100374.27;1637260;84;21224;-88
2021/04/18 11:33:57;;;;;;;8.28;7.58;;;;;;;11.29;69.24;100378.71;1687221;84;21722;-89
2021/04/18 11:36:25;;;;;;;10.68;9.33;;;;;;;11.36;68.94;100373.41;1699282;84;21188;-90
2021/04/18 11:38:55;;;;;;;6.25;5.75;;;;;;;11.44;68.55;100375.97;1658114;86;21129;-88
2021/04/18 11:41:25;;;;;;;7.05;6.42;;;;;;;11.62;67.67;100377.66;1654749;86;21207;-86
2021/04/18 11:43:53;;;;;;;6.10;5.65;;;;;;;11.72;67.91;100381.83;1650817;86;21334;-85
2021/04/18 11:46:19;;;;;;;6.30;5.70;;;;;;;11.76;67.43;100379.08;1687595;84;21080;-87
2021/04/18 11:48:47;;;;;;;5.15;4.75;;;;;;;11.73;66.74;100378.12;1674238;84;21167;-86